General Aviation Weather

Text Reports

Enter one or more of the following location identifiers separated by a space:

Zip Code, Four-Character ICAO or Three-Character IATA airport codes.

METAR - Aviation Routine Weather Report
ESPE - Vidsel,
Updated at 2:50 PM GMT on December 19, 2014 (3:50 PM CET):
METAR ESPE 191450Z AUTO 00000KT 7000NDV -SN OVC016/// M05/M06 Q0980
TAF - Terminal Area Forecast
ESPE - Vidsel,
Updated at 2:50 PM GMT on December 19, 2014 (3:50 PM CET):
No TAF is currently available for this location.
Decoded:
No decoded TAF is available.
PIREP - Pilot Weather Report
ESPE - Vidsel,
Updated at 2:50 PM GMT on December 19, 2014 (3:50 PM CET):
No PIREP is currently available for this location.
AIRMET - Airmens Meteorological Information
ESPE - Vidsel,
Updated at 2:50 PM GMT on December 19, 2014 (3:50 PM CET):
No AIRMET is currently available for this location.
SIGMET - Significant Meteorological Information
ESPE - Vidsel,
Updated at 2:50 PM GMT on December 19, 2014 (3:50 PM CET):
No SIGMET is currently available for this location.
NOTAM - Notice to Airmen
ESPE - Vidsel,
Updated at 2:50 PM GMT on December 19, 2014 (3:50 PM CET):
No NOTAM is currently available for this location.
Forecast Area
ESPE - Vidsel,
Updated at 2:50 PM GMT on December 19, 2014 (3:50 PM CET):
No NOTAM is currently available for this location.
Aviation Weather Maps